createdAt,value
2017-02-02T00:00:15.148Z,0
2017-02-02T00:00:55.588Z,0
2017-02-02T00:01:36.046Z,0
2017-02-02T00:04:15.521Z,0
2017-02-02T00:04:55.999Z,0
2017-02-02T00:05:36.501Z,0
2017-02-02T00:06:16.985Z,0
2017-02-02T00:06:57.450Z,0
2017-02-02T00:07:37.925Z,0
2017-02-02T00:08:18.393Z,0
2017-02-02T00:08:58.881Z,0
2017-02-02T00:09:39.361Z,0
2017-02-02T00:10:19.839Z,0
2017-02-02T00:11:00.308Z,0
2017-02-02T00:11:40.754Z,0
2017-02-02T00:12:21.195Z,0
2017-02-02T00:14:49.304Z,0
2017-02-02T00:15:29.844Z,0
2017-02-02T00:17:42.826Z,0
2017-02-02T00:18:23.292Z,0
2017-02-02T00:19:03.728Z,0
2017-02-02T00:19:44.181Z,0
2017-02-02T00:20:24.649Z,0
2017-02-02T00:21:05.109Z,0
2017-02-02T00:23:43.483Z,0
2017-02-02T00:24:23.960Z,0
2017-02-02T00:25:04.464Z,0
2017-02-02T00:25:44.937Z,0
2017-02-02T00:26:25.414Z,0
2017-02-02T00:27:05.876Z,0
2017-02-02T00:27:46.319Z,0
2017-02-02T00:28:26.787Z,0
2017-02-02T00:29:07.256Z,0
2017-02-02T00:29:47.724Z,0
2017-02-02T00:30:28.198Z,0
2017-02-02T00:31:08.714Z,0
2017-02-02T00:31:49.156Z,0
2017-02-02T00:32:29.617Z,0
2017-02-02T00:33:10.076Z,0
2017-02-02T00:33:50.553Z,0
2017-02-02T00:34:30.983Z,0
2017-02-02T00:35:11.438Z,0
2017-02-02T00:35:51.864Z,0
2017-02-02T00:36:32.341Z,0
2017-02-02T00:37:12.787Z,0
2017-02-02T00:37:53.261Z,0
2017-02-02T00:38:33.735Z,0
2017-02-02T00:39:14.193Z,0
2017-02-02T00:39:54.603Z,0
2017-02-02T00:40:35.079Z,0
2017-02-02T00:41:15.545Z,0
2017-02-02T00:41:55.954Z,0
2017-02-02T00:42:36.432Z,0
2017-02-02T00:43:16.847Z,0
2017-02-02T00:43:57.314Z,0
2017-02-02T00:44:38.262Z,0
2017-02-02T00:45:18.719Z,0
2017-02-02T00:45:59.184Z,0
2017-02-02T00:46:39.641Z,0
2017-02-02T00:47:20.078Z,0
2017-02-02T00:48:00.559Z,0
2017-02-02T00:50:15.276Z,0
2017-02-02T00:50:55.743Z,0
2017-02-02T00:51:37.074Z,0
2017-02-02T00:52:17.569Z,0
2017-02-02T00:52:58.058Z,0
2017-02-02T00:53:39.344Z,0
2017-02-02T00:54:19.771Z,0
2017-02-02T00:55:01.685Z,0
2017-02-02T00:55:43.757Z,0
2017-02-02T00:56:24.196Z,0
2017-02-02T00:57:04.653Z,0
2017-02-02T00:57:47.313Z,0
2017-02-02T00:58:30.530Z,0
2017-02-02T01:00:45.250Z,0
2017-02-02T01:03:06.462Z,0
2017-02-02T01:03:46.939Z,0
2017-02-02T01:04:27.397Z,0
2017-02-02T01:05:11.375Z,0
2017-02-02T01:05:51.851Z,0
2017-02-02T01:06:32.316Z,0
2017-02-02T01:07:14.522Z,0
2017-02-02T01:07:55.541Z,0
2017-02-02T01:08:37.044Z,0
2017-02-02T01:09:17.505Z,0
2017-02-02T01:09:58.633Z,0
2017-02-02T01:10:39.067Z,0
2017-02-02T01:11:20.311Z,0
2017-02-02T01:12:02.359Z,0
2017-02-02T01:12:42.810Z,0
2017-02-02T01:13:23.939Z,0
2017-02-02T01:14:04.427Z,0
2017-02-02T01:14:44.877Z,0
2017-02-02T01:15:25.356Z,0
2017-02-02T01:16:05.803Z,0
2017-02-02T01:16:46.275Z,0
2017-02-02T01:17:26.731Z,0
2017-02-02T01:18:07.198Z,0
2017-02-02T01:18:47.673Z,0
2017-02-02T01:19:28.173Z,0
2017-02-02T01:20:08.604Z,0
2017-02-02T01:20:49.071Z,0
2017-02-02T01:21:29.541Z,0
2017-02-02T01:22:09.972Z,0
2017-02-02T01:24:48.396Z,0
2017-02-02T01:25:28.863Z,0
2017-02-02T01:26:09.367Z,0
2017-02-02T01:26:49.816Z,0
2017-02-02T01:27:30.307Z,0
2017-02-02T01:28:10.759Z,0
2017-02-02T01:28:51.233Z,0
2017-02-02T01:29:31.744Z,0
2017-02-02T01:30:12.153Z,0
2017-02-02T01:30:52.655Z,0
2017-02-02T01:31:33.067Z,0
2017-02-02T01:32:13.551Z,0
2017-02-02T01:32:53.995Z,0
2017-02-02T01:33:34.487Z,0
2017-02-02T01:34:14.960Z,0
2017-02-02T01:34:55.379Z,0
2017-02-02T01:35:36.589Z,0
2017-02-02T01:36:17.066Z,0
2017-02-02T01:38:50.130Z,0
2017-02-02T01:39:30.596Z,0
2017-02-02T01:40:11.091Z,0
2017-02-02T01:40:51.552Z,0
2017-02-02T01:41:32.005Z,0
2017-02-02T01:42:12.510Z,0
2017-02-02T01:42:52.943Z,0
2017-02-02T01:43:33.410Z,0
2017-02-02T01:44:13.862Z,0
2017-02-02T01:44:54.362Z,0
2017-02-02T01:45:34.808Z,0
2017-02-02T01:46:15.296Z,0
2017-02-02T01:46:55.785Z,0
2017-02-02T01:47:36.223Z,0
2017-02-02T01:48:16.651Z,0
2017-02-02T01:48:57.096Z,0
2017-02-02T01:49:37.554Z,0
2017-02-02T01:50:17.988Z,0
2017-02-02T01:50:58.458Z,0
2017-02-02T01:51:38.891Z,0
2017-02-02T01:52:19.347Z,0
2017-02-02T01:52:59.799Z,0
2017-02-02T01:53:40.260Z,0
2017-02-02T01:54:20.721Z,0
2017-02-02T01:55:01.163Z,0
2017-02-02T01:55:41.636Z,0
2017-02-02T01:56:22.078Z,0
2017-02-02T01:57:02.572Z,0
2017-02-02T01:57:43.003Z,0
2017-02-02T01:58:23.446Z,0
2017-02-02T01:59:03.911Z,0
2017-02-02T01:59:44.376Z,0
2017-02-02T02:00:24.826Z,0
2017-02-02T02:01:05.276Z,0
2017-02-02T02:01:45.740Z,0
2017-02-02T02:02:26.181Z,0
2017-02-02T02:03:06.686Z,0
2017-02-02T02:03:47.128Z,0
2017-02-02T02:04:27.599Z,0
2017-02-02T02:05:08.082Z,0
2017-02-02T02:05:48.557Z,0
2017-02-02T02:06:29.024Z,0
2017-02-02T02:07:09.508Z,0
2017-02-02T02:07:49.939Z,0
2017-02-02T02:08:30.426Z,0
2017-02-02T02:09:10.873Z,0
2017-02-02T02:09:51.352Z,0
2017-02-02T02:10:31.835Z,0
2017-02-02T02:11:12.301Z,0
2017-02-02T02:11:52.783Z,0
2017-02-02T02:12:33.270Z,0
2017-02-02T02:13:13.744Z,0
2017-02-02T02:13:54.235Z,0
2017-02-02T02:14:34.731Z,0
2017-02-02T02:15:15.219Z,0
2017-02-02T02:15:55.698Z,0
2017-02-02T02:16:36.159Z,0
2017-02-02T02:17:16.620Z,0
2017-02-02T02:17:57.139Z,0
2017-02-02T02:18:37.616Z,0
2017-02-02T02:19:18.108Z,0
2017-02-02T02:19:58.599Z,0
2017-02-02T02:20:39.064Z,0
2017-02-02T02:21:19.532Z,0
2017-02-02T02:22:00.005Z,0
2017-02-02T02:22:40.502Z,0
2017-02-02T02:23:20.957Z,0
2017-02-02T02:24:01.425Z,0
2017-02-02T02:24:41.909Z,0
2017-02-02T02:25:22.390Z,0
2017-02-02T02:26:02.852Z,0
2017-02-02T02:26:43.361Z,0
2017-02-02T02:27:23.835Z,0
2017-02-02T02:28:04.298Z,0
2017-02-02T02:28:44.760Z,0
2017-02-02T02:29:25.246Z,0
2017-02-02T02:30:05.731Z,0
2017-02-02T02:30:46.213Z,0
2017-02-02T02:31:26.669Z,0
2017-02-02T02:32:07.154Z,0
2017-02-02T02:32:47.625Z,0
2017-02-02T02:33:28.075Z,0
2017-02-02T02:34:08.573Z,0
2017-02-02T02:34:49.055Z,0
2017-02-02T02:35:29.486Z,0
2017-02-02T02:36:09.970Z,0
2017-02-02T02:36:50.378Z,0
2017-02-02T02:37:30.832Z,0
2017-02-02T02:38:11.296Z,0
2017-02-02T02:38:51.762Z,0
2017-02-02T02:39:32.243Z,0
2017-02-02T02:40:12.693Z,0
2017-02-02T02:40:53.181Z,0
2017-02-02T02:41:33.630Z,0
2017-02-02T02:42:14.064Z,0
2017-02-02T02:42:54.520Z,0
2017-02-02T02:43:35.036Z,0
2017-02-02T02:44:15.486Z,0
2017-02-02T02:44:55.942Z,0
2017-02-02T02:45:36.409Z,0
2017-02-02T02:46:16.846Z,0
2017-02-02T02:46:57.334Z,0
2017-02-02T02:47:37.782Z,0
2017-02-02T02:48:18.312Z,0
2017-02-02T02:48:58.739Z,0
2017-02-02T02:49:39.184Z,0
2017-02-02T02:50:19.650Z,0
2017-02-02T02:51:00.075Z,0
2017-02-02T02:51:40.556Z,0
2017-02-02T02:52:21.002Z,0
2017-02-02T02:54:49.261Z,0
2017-02-02T02:55:29.729Z,0
2017-02-02T02:56:10.202Z,0
2017-02-02T02:56:50.683Z,0
2017-02-02T02:57:31.168Z,0
2017-02-02T02:58:11.613Z,0
2017-02-02T02:58:52.058Z,0
2017-02-02T02:59:32.513Z,0
2017-02-02T03:00:12.966Z,0
2017-02-02T03:00:53.463Z,0
2017-02-02T03:01:33.930Z,0
2017-02-02T03:03:52.089Z,0
2017-02-02T03:04:33.220Z,0
2017-02-02T03:05:13.714Z,0
2017-02-02T03:05:54.732Z,0
2017-02-02T03:06:35.939Z,0
2017-02-02T03:07:16.378Z,0
2017-02-02T03:07:56.857Z,0
2017-02-02T03:10:38.369Z,0
2017-02-02T03:11:19.398Z,0
2017-02-02T03:11:59.842Z,0
2017-02-02T03:12:40.817Z,0
2017-02-02T03:13:21.283Z,0
2017-02-02T03:14:02.314Z,0
2017-02-02T03:14:42.765Z,0
2017-02-02T03:15:23.224Z,0
2017-02-02T03:16:05.301Z,0
2017-02-02T03:16:47.599Z,0
2017-02-02T03:17:29.311Z,0
2017-02-02T03:18:09.774Z,0
2017-02-02T03:18:50.890Z,0
2017-02-02T03:19:32.150Z,0
2017-02-02T03:20:13.298Z,0
2017-02-02T03:20:53.759Z,0
2017-02-02T03:23:11.788Z,0
2017-02-02T03:23:52.248Z,0
2017-02-02T03:24:34.238Z,0
2017-02-02T03:25:17.437Z,0
2017-02-02T03:25:58.817Z,0
2017-02-02T03:26:39.276Z,0
2017-02-02T03:27:19.737Z,0
2017-02-02T03:28:02.461Z,0
2017-02-02T03:28:42.890Z,0
2017-02-02T03:31:11.012Z,0
2017-02-02T03:32:04.428Z,0
2017-02-02T03:34:34.746Z,0
2017-02-02T03:38:39.031Z,0
2017-02-02T03:39:20.035Z,0
2017-02-02T03:40:01.116Z,0
2017-02-02T05:07:55.865Z,0
2017-02-02T05:08:36.316Z,0
2017-02-02T05:09:16.761Z,0
2017-02-02T05:09:57.230Z,0
2017-02-02T05:10:37.714Z,0
2017-02-02T05:13:06.756Z,0
2017-02-02T05:13:47.247Z,0
2017-02-02T05:14:27.736Z,0
2017-02-02T05:15:08.203Z,0
2017-02-02T05:15:48.679Z,0
2017-02-02T05:16:29.127Z,0
2017-02-02T05:17:09.589Z,0
2017-02-02T05:17:50.037Z,0
2017-02-02T05:18:30.499Z,0
2017-02-02T05:19:10.976Z,0
2017-02-02T05:19:51.445Z,0
2017-02-02T05:20:31.917Z,0
2017-02-02T05:21:12.357Z,0
2017-02-02T05:21:52.814Z,0
2017-02-02T05:22:33.277Z,0
2017-02-02T05:23:13.732Z,0
2017-02-02T05:23:54.218Z,0
2017-02-02T05:24:34.671Z,0
2017-02-02T05:25:15.166Z,0
2017-02-02T05:25:55.591Z,0
2017-02-02T05:26:36.081Z,0
2017-02-02T05:27:16.538Z,0
2017-02-02T05:27:57.011Z,0
2017-02-02T05:28:37.458Z,0
2017-02-02T05:29:17.929Z,0
2017-02-02T05:29:58.424Z,0
2017-02-02T05:30:39.514Z,0
2017-02-02T05:31:20.006Z,0
2017-02-02T05:32:00.437Z,0
2017-02-02T05:32:40.891Z,0
2017-02-02T05:33:21.350Z,0
2017-02-02T05:34:01.805Z,0
2017-02-02T05:34:42.257Z,0
2017-02-02T05:35:22.731Z,0
2017-02-02T05:36:03.176Z,0
2017-02-02T05:36:43.624Z,0
2017-02-02T05:38:57.533Z,0
2017-02-02T05:39:37.994Z,0
2017-02-02T05:40:18.424Z,0
2017-02-02T05:40:58.868Z,0
2017-02-02T05:41:39.317Z,0
2017-02-02T05:42:19.778Z,0
2017-02-02T05:43:00.248Z,0
2017-02-02T05:43:40.729Z,0
2017-02-02T05:44:21.166Z,0
2017-02-02T05:45:01.598Z,0
2017-02-02T05:45:42.061Z,0
2017-02-02T05:46:22.522Z,0
2017-02-02T05:47:02.978Z,0
2017-02-02T05:47:44.129Z,0
2017-02-02T05:48:24.635Z,0
2017-02-02T05:49:05.067Z,0
2017-02-02T05:49:45.543Z,0
2017-02-02T05:50:25.976Z,0
2017-02-02T05:51:06.411Z,0
2017-02-02T05:51:46.840Z,0
2017-02-02T05:52:27.289Z,0
2017-02-02T05:54:55.347Z,0
2017-02-02T05:55:35.824Z,0
2017-02-02T05:56:16.322Z,0
2017-02-02T05:56:56.822Z,0
2017-02-02T05:57:37.263Z,0
2017-02-02T05:58:17.723Z,0
2017-02-02T05:58:58.181Z,0
2017-02-02T05:59:38.621Z,0
2017-02-02T06:00:19.097Z,0
2017-02-02T06:00:59.562Z,0
2017-02-02T06:01:40.024Z,0
2017-02-02T06:02:20.495Z,0
2017-02-02T06:03:00.961Z,0
2017-02-02T06:05:34.929Z,0
2017-02-02T06:06:15.432Z,0
2017-02-02T06:06:55.882Z,0
2017-02-02T06:07:36.350Z,0
2017-02-02T06:08:16.808Z,0
2017-02-02T06:08:57.287Z,0
2017-02-02T06:09:37.740Z,0
2017-02-02T06:10:18.188Z,0
2017-02-02T06:10:58.651Z,0
2017-02-02T06:11:39.085Z,0
2017-02-02T06:12:19.522Z,0
2017-02-02T06:13:00.007Z,0
2017-02-02T06:13:40.458Z,0
2017-02-02T06:14:20.905Z,0
2017-02-02T06:15:01.346Z,0
2017-02-02T06:15:41.847Z,0
2017-02-02T06:18:20.160Z,0
2017-02-02T06:19:00.661Z,0
2017-02-02T06:19:41.141Z,0
2017-02-02T06:20:21.602Z,0
2017-02-02T06:21:02.090Z,0
2017-02-02T06:21:42.545Z,0
2017-02-02T06:22:23.014Z,0
2017-02-02T06:23:03.506Z,0
2017-02-02T06:23:43.986Z,0
2017-02-02T06:24:24.425Z,0
2017-02-02T06:25:04.939Z,0
2017-02-02T06:27:43.280Z,0
2017-02-02T06:28:23.750Z,0
2017-02-02T06:29:04.210Z,0
2017-02-02T06:29:44.681Z,0
2017-02-02T06:32:17.859Z,0
2017-02-02T06:32:58.356Z,0
2017-02-02T06:33:38.835Z,0
2017-02-02T06:34:19.303Z,0
2017-02-02T06:34:59.752Z,0
2017-02-02T06:35:40.220Z,0
2017-02-02T06:36:20.673Z,0
2017-02-02T06:37:01.143Z,0
2017-02-02T06:37:41.609Z,0
2017-02-02T06:38:22.079Z,0
2017-02-02T06:39:02.551Z,0
2017-02-02T06:39:43.009Z,0
2017-02-02T06:40:23.465Z,0
2017-02-02T06:42:51.675Z,0
2017-02-02T06:43:32.150Z,0
2017-02-02T06:44:12.635Z,0
2017-02-02T06:44:53.109Z,0
2017-02-02T06:45:33.564Z,0
2017-02-02T06:46:14.000Z,0
2017-02-02T06:46:54.486Z,0
2017-02-02T06:47:34.928Z,0
2017-02-02T06:48:15.397Z,0
2017-02-02T06:48:55.843Z,0
2017-02-02T06:49:36.329Z,0
2017-02-02T06:50:16.784Z,0
2017-02-02T06:50:57.238Z,0
2017-02-02T06:51:37.718Z,0
2017-02-02T06:52:18.153Z,0
2017-02-02T06:52:58.643Z,0
2017-02-02T06:55:32.064Z,0
2017-02-02T06:56:12.543Z,0
2017-02-02T06:56:53.022Z,0
2017-02-02T06:57:33.469Z,0
2017-02-02T06:58:13.957Z,5
2017-02-02T06:58:54.447Z,5
2017-02-02T06:59:34.925Z,5
2017-02-02T07:00:15.419Z,5
2017-02-02T07:00:55.901Z,5
2017-02-02T07:01:36.370Z,5
2017-02-02T07:04:14.836Z,5
2017-02-02T07:04:55.312Z,5
2017-02-02T07:05:35.779Z,5
2017-02-02T07:06:16.266Z,5
2017-02-02T07:06:56.742Z,5
2017-02-02T07:07:37.203Z,10
2017-02-02T07:08:17.646Z,10
2017-02-02T07:08:58.109Z,10
2017-02-02T07:09:38.574Z,15
2017-02-02T07:10:19.019Z,15
2017-02-02T07:10:59.473Z,15
2017-02-02T07:11:39.949Z,15
2017-02-02T07:12:20.399Z,15
2017-02-02T07:13:00.887Z,15
2017-02-02T07:13:41.328Z,20
2017-02-02T07:14:21.788Z,20
2017-02-02T07:15:02.253Z,20
2017-02-02T07:15:42.678Z,25
2017-02-02T07:16:23.171Z,25
2017-02-02T07:17:03.637Z,30
2017-02-02T07:17:44.068Z,30
2017-02-02T07:18:24.554Z,30
2017-02-02T07:19:05.012Z,30
2017-02-02T07:19:45.477Z,30
2017-02-02T07:20:25.935Z,30
2017-02-02T07:21:06.376Z,30
2017-02-02T07:21:46.850Z,30
2017-02-02T07:22:27.318Z,30
2017-02-02T07:23:07.797Z,30
2017-02-02T07:23:48.222Z,30
2017-02-02T07:24:28.675Z,35
2017-02-02T07:25:09.125Z,35
2017-02-02T07:25:49.602Z,35
2017-02-02T07:26:30.039Z,35
2017-02-02T07:27:10.531Z,35
2017-02-02T07:27:50.985Z,35
2017-02-02T07:28:31.447Z,35
2017-02-02T07:29:11.933Z,35
2017-02-02T07:29:52.420Z,35
2017-02-02T07:30:32.900Z,35
2017-02-02T07:31:13.335Z,35
2017-02-02T07:31:53.802Z,35
2017-02-02T07:32:34.266Z,35
2017-02-02T07:33:14.740Z,35
2017-02-02T07:33:55.199Z,35
2017-02-02T07:34:35.655Z,35
2017-02-02T07:35:16.078Z,35
2017-02-02T07:35:56.526Z,40
2017-02-02T07:36:36.967Z,40
2017-02-02T07:37:17.423Z,40
2017-02-02T07:37:57.908Z,45
2017-02-02T07:38:38.378Z,45
2017-02-02T07:39:18.848Z,45
2017-02-02T07:39:59.334Z,45
2017-02-02T07:40:39.801Z,40
2017-02-02T07:41:20.290Z,40
2017-02-02T07:42:00.761Z,40
2017-02-02T07:42:41.215Z,45
2017-02-02T07:43:21.652Z,45
2017-02-02T07:44:02.147Z,45
2017-02-02T07:44:42.582Z,45
2017-02-02T07:45:23.035Z,45
2017-02-02T07:46:03.543Z,45
2017-02-02T07:46:44.017Z,45
2017-02-02T07:47:24.501Z,45
2017-02-02T07:48:04.916Z,45
2017-02-02T07:48:45.428Z,45
2017-02-02T07:49:25.861Z,50
2017-02-02T07:50:06.353Z,55
2017-02-02T07:50:46.828Z,60
2017-02-02T07:51:27.259Z,65
2017-02-02T07:52:07.714Z,70
2017-02-02T07:54:21.701Z,80
2017-02-02T07:55:02.190Z,80
2017-02-02T07:55:42.654Z,80
2017-02-02T07:56:23.159Z,75
2017-02-02T07:57:03.627Z,75
2017-02-02T07:57:44.093Z,75
2017-02-02T07:58:24.569Z,70
2017-02-02T07:59:05.044Z,70
2017-02-02T07:59:45.542Z,70
2017-02-02T08:00:26.011Z,70
2017-02-02T08:01:06.474Z,75
2017-02-02T08:01:46.948Z,75
2017-02-02T08:02:27.436Z,80
2017-02-02T08:03:07.927Z,85
2017-02-02T08:03:48.412Z,90
2017-02-02T08:04:28.883Z,100
2017-02-02T08:05:09.340Z,105
2017-02-02T08:05:49.766Z,115
2017-02-02T08:06:30.257Z,115
2017-02-02T08:07:10.729Z,120
2017-02-02T08:07:51.228Z,120
2017-02-02T08:08:31.695Z,125
2017-02-02T08:09:12.184Z,125
2017-02-02T08:09:52.646Z,125
2017-02-02T08:10:33.152Z,125
2017-02-02T08:11:13.602Z,125
2017-02-02T08:11:54.062Z,130
2017-02-02T08:12:34.514Z,130
2017-02-02T08:13:14.998Z,135
2017-02-02T08:13:55.459Z,140
2017-02-02T08:14:35.937Z,150
2017-02-02T08:15:16.412Z,155
2017-02-02T08:15:56.882Z,160
2017-02-02T08:16:37.324Z,160
2017-02-02T08:17:17.797Z,150
2017-02-02T08:17:58.241Z,145
2017-02-02T08:18:38.721Z,140
2017-02-02T08:19:19.204Z,140
2017-02-02T08:19:59.665Z,150
2017-02-02T08:20:40.129Z,155
2017-02-02T08:21:20.569Z,160
2017-02-02T08:22:01.041Z,165
2017-02-02T08:22:41.473Z,175
2017-02-02T08:23:21.966Z,180
2017-02-02T08:24:02.426Z,190
2017-02-02T08:24:42.895Z,195
2017-02-02T08:25:23.375Z,200
2017-02-02T08:26:03.857Z,200
2017-02-02T08:26:44.315Z,200
2017-02-02T08:27:24.805Z,200
2017-02-02T08:28:05.283Z,200
2017-02-02T08:28:45.775Z,200
2017-02-02T08:29:26.286Z,195
2017-02-02T08:30:06.747Z,185
2017-02-02T08:30:47.199Z,175
2017-02-02T08:31:27.674Z,175
2017-02-02T08:32:08.138Z,175
2017-02-02T08:32:48.616Z,180
2017-02-02T08:33:29.065Z,190
2017-02-02T08:34:09.509Z,195
2017-02-02T08:34:50.014Z,200
2017-02-02T08:35:30.464Z,205
2017-02-02T08:36:10.968Z,215
2017-02-02T08:36:51.409Z,230
2017-02-02T08:37:31.877Z,240
2017-02-02T08:38:12.336Z,250
2017-02-02T08:38:52.811Z,260
2017-02-02T08:39:33.300Z,260
2017-02-02T08:40:13.750Z,270
2017-02-02T08:40:54.227Z,275
2017-02-02T08:41:34.677Z,280
2017-02-02T08:42:15.123Z,280
2017-02-02T08:42:55.574Z,290
2017-02-02T08:43:36.053Z,295
2017-02-02T08:44:16.532Z,300
2017-02-02T08:44:56.992Z,300
2017-02-02T08:45:37.451Z,315
2017-02-02T08:46:17.902Z,320
2017-02-02T08:46:58.341Z,325
2017-02-02T08:47:38.799Z,325
2017-02-02T08:48:19.282Z,330
2017-02-02T08:48:59.738Z,330
2017-02-02T08:51:12.875Z,350
2017-02-02T08:51:53.361Z,360
2017-02-02T08:52:33.814Z,385
2017-02-02T08:53:14.272Z,375
2017-02-02T08:55:27.194Z,385
2017-02-02T08:56:07.695Z,450
2017-02-02T08:56:48.152Z,355
2017-02-02T08:57:28.623Z,335
2017-02-02T08:58:09.111Z,340
2017-02-02T08:58:49.603Z,365
2017-02-02T08:59:30.038Z,435
2017-02-02T09:00:11.406Z,370
2017-02-02T09:00:51.843Z,370
2017-02-02T09:01:32.312Z,375
2017-02-02T09:03:50.435Z,330
2017-02-02T09:04:30.922Z,310
2017-02-02T09:05:11.369Z,310
2017-02-02T09:05:51.811Z,305
2017-02-02T09:06:32.252Z,290
2017-02-02T09:07:12.717Z,290
2017-02-02T09:07:53.138Z,285
2017-02-02T09:08:33.580Z,280
2017-02-02T09:09:14.063Z,270
2017-02-02T09:09:54.501Z,260
2017-02-02T09:10:34.989Z,255
2017-02-02T09:11:15.462Z,255
2017-02-02T09:11:55.907Z,260
2017-02-02T09:12:36.368Z,260
2017-02-02T09:13:16.856Z,270
2017-02-02T09:15:31.878Z,320
2017-02-02T09:16:12.363Z,320
2017-02-02T09:16:52.828Z,355
2017-02-02T09:17:34.384Z,360
2017-02-02T09:18:14.394Z,360
2017-02-02T09:18:54.866Z,390
2017-02-02T09:19:35.308Z,385
2017-02-02T09:20:15.788Z,535
2017-02-02T09:20:56.274Z,555
2017-02-02T09:21:36.748Z,505
2017-02-02T09:22:17.228Z,425
2017-02-02T09:22:57.698Z,405
2017-02-02T09:23:38.205Z,430
2017-02-02T09:24:18.680Z,460
2017-02-02T09:24:59.167Z,495
2017-02-02T09:25:39.642Z,540
2017-02-02T09:26:20.099Z,640
2017-02-02T09:27:00.581Z,710
2017-02-02T09:27:41.026Z,685
2017-02-02T09:28:21.489Z,775
2017-02-02T09:29:01.928Z,785
2017-02-02T09:29:42.409Z,785
2017-02-02T09:30:22.899Z,785
2017-02-02T09:31:03.380Z,795
2017-02-02T09:31:43.870Z,780
2017-02-02T09:32:24.320Z,805
2017-02-02T09:33:04.811Z,815
2017-02-02T09:33:45.276Z,800
2017-02-02T09:34:25.753Z,710
2017-02-02T09:35:06.233Z,680
2017-02-02T09:35:46.713Z,715
2017-02-02T09:36:27.199Z,610
2017-02-02T09:37:07.658Z,575
2017-02-02T09:37:48.152Z,570
2017-02-02T09:38:28.639Z,575
2017-02-02T09:39:09.116Z,570
2017-02-02T09:39:49.599Z,580
2017-02-02T09:40:30.093Z,560
2017-02-02T09:42:48.221Z,515
2017-02-02T09:43:28.708Z,480
2017-02-02T09:44:09.193Z,435
2017-02-02T09:44:49.689Z,400
2017-02-02T09:45:30.145Z,375
2017-02-02T09:46:10.617Z,360
2017-02-02T09:46:51.121Z,350
2017-02-02T09:47:31.588Z,350
2017-02-02T09:48:12.019Z,350
2017-02-02T09:48:52.486Z,355
2017-02-02T09:49:32.938Z,365
2017-02-02T09:50:13.956Z,360
2017-02-02T09:50:54.423Z,365
2017-02-02T09:51:34.886Z,365
2017-02-02T09:52:15.344Z,375
2017-02-02T09:52:55.799Z,375
2017-02-02T09:53:36.274Z,375
2017-02-02T09:54:16.744Z,375
2017-02-02T09:54:57.207Z,375
2017-02-02T09:55:37.655Z,375
2017-02-02T09:56:18.117Z,370
2017-02-02T09:56:58.582Z,360
2017-02-02T09:57:39.687Z,340
2017-02-02T09:58:20.171Z,325
2017-02-02T09:59:00.620Z,305
2017-02-02T09:59:41.101Z,290
2017-02-02T10:00:21.549Z,280
2017-02-02T10:01:01.984Z,270
2017-02-02T10:01:42.465Z,270
2017-02-02T10:02:22.897Z,285
2017-02-02T10:03:03.368Z,295
2017-02-02T10:03:43.849Z,300
2017-02-02T10:04:24.298Z,310
2017-02-02T10:05:04.723Z,315
2017-02-02T10:05:45.232Z,325
2017-02-02T10:06:25.718Z,330
2017-02-02T10:07:06.202Z,345
2017-02-02T10:07:46.671Z,350
2017-02-02T10:08:27.104Z,355
2017-02-02T10:09:07.556Z,355
2017-02-02T10:09:48.028Z,350
2017-02-02T10:10:28.479Z,340
2017-02-02T10:11:08.932Z,340
2017-02-02T10:11:49.410Z,350
2017-02-02T10:12:29.890Z,375
2017-02-02T10:13:10.354Z,405
2017-02-02T10:13:50.838Z,430
2017-02-02T10:14:31.277Z,475
2017-02-02T10:15:11.741Z,780
2017-02-02T10:15:52.210Z,685
2017-02-02T10:16:32.659Z,675
2017-02-02T10:17:13.138Z,755
2017-02-02T10:17:53.581Z,830
2017-02-02T10:20:32.591Z,1035
2017-02-02T10:21:13.082Z,1050
2017-02-02T10:21:53.569Z,1075
2017-02-02T10:22:34.060Z,965
2017-02-02T10:23:14.547Z,1080
2017-02-02T10:23:55.038Z,1180
2017-02-02T10:24:35.506Z,995
2017-02-02T10:25:15.966Z,790
2017-02-02T10:27:44.596Z,695
2017-02-02T10:28:25.093Z,660
2017-02-02T10:29:05.591Z,660
2017-02-02T10:29:46.050Z,645
2017-02-02T10:30:26.530Z,670
2017-02-02T10:31:07.011Z,665
2017-02-02T10:31:47.456Z,645
2017-02-02T10:32:27.918Z,645
2017-02-02T10:33:08.396Z,645
2017-02-02T10:33:48.864Z,625
2017-02-02T10:34:29.331Z,585
2017-02-02T10:35:09.765Z,555
2017-02-02T10:35:50.197Z,545
2017-02-02T10:36:30.666Z,535
2017-02-02T10:37:11.155Z,525
2017-02-02T10:37:51.628Z,535
2017-02-02T10:38:32.099Z,535
2017-02-02T10:39:12.576Z,545
2017-02-02T10:39:53.032Z,575
2017-02-02T10:40:33.498Z,615
2017-02-02T10:41:13.977Z,660
2017-02-02T10:41:54.420Z,760
2017-02-02T10:42:34.906Z,965
2017-02-02T10:43:15.343Z,780
2017-02-02T10:43:55.811Z,805
2017-02-02T10:44:36.288Z,915
2017-02-02T10:45:16.773Z,1065
2017-02-02T10:45:57.212Z,810
2017-02-02T10:46:37.717Z,770
2017-02-02T10:47:18.172Z,805
2017-02-02T10:47:58.647Z,880
2017-02-02T10:48:39.084Z,695
2017-02-02T10:49:19.551Z,675
2017-02-02T10:50:00.016Z,655
2017-02-02T10:50:40.483Z,645
2017-02-02T10:51:20.951Z,645
2017-02-02T10:52:01.385Z,650
2017-02-02T10:54:34.851Z,680
2017-02-02T10:55:15.340Z,785
2017-02-02T10:55:55.834Z,790
2017-02-02T10:56:36.326Z,925
2017-02-02T10:57:16.813Z,785
2017-02-02T10:57:57.259Z,1080
2017-02-02T10:58:37.746Z,955
2017-02-02T10:59:18.219Z,935
2017-02-02T10:59:58.706Z,850
2017-02-02T11:00:39.202Z,970
2017-02-02T11:01:19.673Z,835
2017-02-02T11:02:00.991Z,780
2017-02-02T11:02:41.484Z,935
2017-02-02T11:03:21.975Z,940
2017-02-02T11:04:02.464Z,950
2017-02-02T11:04:42.963Z,790
2017-02-02T11:05:23.470Z,750
2017-02-02T11:06:03.943Z,800
2017-02-02T11:06:44.434Z,960
2017-02-02T11:07:24.916Z,1330
2017-02-02T11:08:05.420Z,1000
2017-02-02T11:08:45.907Z,1335
2017-02-02T11:09:26.381Z,1450
2017-02-02T11:10:06.898Z,1410
2017-02-02T11:10:47.376Z,1255
2017-02-02T11:11:27.841Z,1305
2017-02-02T11:14:06.837Z,1710
2017-02-02T11:14:47.329Z,1940
2017-02-02T11:15:27.832Z,1855
2017-02-02T11:16:08.330Z,1850
2017-02-02T11:16:48.789Z,1835
2017-02-02T11:17:29.304Z,1830
2017-02-02T11:18:09.753Z,1770
2017-02-02T11:18:50.236Z,1105
2017-02-02T11:19:30.717Z,1165
2017-02-02T11:20:11.198Z,930
2017-02-02T11:20:51.726Z,915
2017-02-02T11:23:09.981Z,810
2017-02-02T11:23:50.453Z,980
2017-02-02T11:24:30.973Z,825
2017-02-02T11:25:11.429Z,1090
2017-02-02T11:25:51.916Z,705
2017-02-02T11:26:32.410Z,900
2017-02-02T11:27:12.880Z,530
2017-02-02T11:27:53.310Z,505
2017-02-02T11:28:33.776Z,460
2017-02-02T11:29:14.243Z,660
2017-02-02T11:29:54.708Z,545
2017-02-02T11:30:35.193Z,480
2017-02-02T11:31:15.666Z,540
2017-02-02T11:31:56.164Z,640
2017-02-02T11:32:36.657Z,500
2017-02-02T11:33:17.132Z,500
2017-02-02T11:33:57.645Z,515
2017-02-02T11:34:38.122Z,505
2017-02-02T11:35:18.622Z,495
2017-02-02T11:35:59.105Z,480
2017-02-02T11:36:39.612Z,450
2017-02-02T11:37:20.035Z,430
2017-02-02T11:38:00.525Z,425
2017-02-02T11:38:40.997Z,425
2017-02-02T11:39:21.470Z,470
2017-02-02T11:40:01.949Z,475
2017-02-02T11:40:42.446Z,500
2017-02-02T11:41:22.953Z,540
2017-02-02T11:42:03.456Z,545
2017-02-02T11:42:43.949Z,545
2017-02-02T11:43:24.433Z,730
2017-02-02T11:44:04.911Z,730
2017-02-02T11:44:45.414Z,655
2017-02-02T11:45:25.889Z,610
2017-02-02T11:46:06.390Z,540
2017-02-02T11:46:46.883Z,545
2017-02-02T11:47:27.361Z,490
2017-02-02T11:48:07.843Z,455
2017-02-02T11:48:48.331Z,440
2017-02-02T11:49:28.838Z,410
2017-02-02T11:50:09.327Z,400
2017-02-02T11:50:49.823Z,380
2017-02-02T11:51:30.325Z,385
2017-02-02T11:52:10.790Z,410
2017-02-02T11:52:51.290Z,410
2017-02-02T11:53:31.776Z,465
2017-02-02T11:54:12.280Z,470
2017-02-02T11:54:52.787Z,460
2017-02-02T11:55:33.258Z,520
2017-02-02T11:56:13.708Z,500
2017-02-02T11:56:54.182Z,560
2017-02-02T11:57:34.646Z,595
2017-02-02T11:58:15.122Z,620
2017-02-02T11:58:55.628Z,665
2017-02-02T11:59:36.132Z,730
2017-02-02T12:00:16.578Z,730
2017-02-02T12:00:57.082Z,685
2017-02-02T12:01:37.585Z,680
2017-02-02T12:02:18.066Z,655
2017-02-02T12:02:58.566Z,645
2017-02-02T12:03:39.072Z,645
2017-02-02T12:04:19.510Z,675
2017-02-02T12:05:00.020Z,690
2017-02-02T12:05:40.464Z,735
2017-02-02T12:07:53.348Z,750
2017-02-02T12:08:33.808Z,735
2017-02-02T12:09:14.301Z,715
2017-02-02T12:09:54.769Z,905
2017-02-02T12:10:35.273Z,795
2017-02-02T12:11:15.759Z,795
2017-02-02T12:11:56.237Z,655
2017-02-02T12:12:36.702Z,595
2017-02-02T12:13:17.202Z,575
2017-02-02T12:13:57.644Z,560
2017-02-02T12:14:38.110Z,535
2017-02-02T12:15:18.602Z,495